createdAt,value
2023-05-08T00:00:09.969Z,1.42
2023-05-08T00:01:13.249Z,1.88
2023-05-08T00:02:16.900Z,1.60
2023-05-08T00:03:19.248Z,1.45
2023-05-08T00:04:22.689Z,1.50
2023-05-08T00:05:25.122Z,1.40
2023-05-08T00:06:30.097Z,1.55
2023-05-08T00:07:32.548Z,1.40
2023-05-08T00:08:36.215Z,1.60
2023-05-08T00:09:38.407Z,1.73
2023-05-08T00:10:41.721Z,1.00
2023-05-08T00:11:44.401Z,1.50
2023-05-08T00:12:47.687Z,1.40
2023-05-08T00:13:49.903Z,1.38
2023-05-08T00:14:53.124Z,1.40
2023-05-08T00:15:55.552Z,1.40
2023-05-08T00:16:58.943Z,1.80
2023-05-08T00:18:01.822Z,2.03
2023-05-08T00:19:05.731Z,2.55
2023-05-08T00:20:09.236Z,2.92
2023-05-08T00:21:12.850Z,2.20
2023-05-08T00:22:16.464Z,2.10
2023-05-08T00:23:22.115Z,1.90
2023-05-08T00:24:24.391Z,1.90
2023-05-08T00:25:28.770Z,1.67
2023-05-08T00:26:36.926Z,1.70
2023-05-08T00:27:40.298Z,1.40
2023-05-08T00:28:42.459Z,1.80
2023-05-08T00:29:45.669Z,1.40
2023-05-08T00:30:47.851Z,1.50
2023-05-08T00:31:51.060Z,1.60
2023-05-08T00:32:56.359Z,1.40
2023-05-08T00:33:58.626Z,1.48
2023-05-08T00:35:01.883Z,1.30
2023-05-08T00:36:05.190Z,1.60
2023-05-08T00:37:08.446Z,4.33
2023-05-08T00:38:12.042Z,5.40
2023-05-08T00:39:15.413Z,3.58
2023-05-08T00:40:17.754Z,2.90
2023-05-08T00:41:21.414Z,1.90
2023-05-08T00:42:23.833Z,1.60
2023-05-08T00:43:29.246Z,1.42
2023-05-08T00:44:31.726Z,1.63
2023-05-08T00:45:38.275Z,1.80
2023-05-08T00:46:41.882Z,1.40
2023-05-08T00:47:46.525Z,1.50
2023-05-08T00:48:49.221Z,1.60
2023-05-08T00:49:52.708Z,1.48
2023-05-08T00:50:56.034Z,1.35
2023-05-08T00:51:59.613Z,1.35
2023-05-08T00:53:03.721Z,1.50
2023-05-08T00:54:08.782Z,1.50
2023-05-08T00:55:11.406Z,1.30
2023-05-08T00:56:16.991Z,1.60
2023-05-08T00:57:19.452Z,1.20
2023-05-08T00:58:24.744Z,1.57
2023-05-08T00:59:27.839Z,1.40
2023-05-08T01:00:32.884Z,1.45
2023-05-08T01:01:36.896Z,1.40
2023-05-08T01:02:41.973Z,1.73
2023-05-08T01:03:44.942Z,1.38
2023-05-08T01:04:49.802Z,1.50
2023-05-08T01:05:52.263Z,1.48
2023-05-08T01:06:55.612Z,1.40
2023-05-08T01:07:58.179Z,1.60
2023-05-08T01:09:02.290Z,1.50
2023-05-08T01:10:06.907Z,1.60
2023-05-08T01:11:18.267Z,1.88
2023-05-08T01:12:26.778Z,1.50
2023-05-08T01:13:38.807Z,1.88
2023-05-08T01:14:56.300Z,1.50
2023-05-08T01:16:09.599Z,1.70
2023-05-08T01:17:19.514Z,1.67
2023-05-08T01:18:29.528Z,1.67
2023-05-08T01:19:53.182Z,1.63
2023-05-08T01:21:14.954Z,2.03
2023-05-08T01:22:37.685Z,1.63
2023-05-08T01:24:20.512Z,1.80
2023-05-08T01:25:57.622Z,1.63
2023-05-08T01:27:47.236Z,1.30
2023-05-08T01:29:29.464Z,1.45
2023-05-08T01:31:06.824Z,1.27
2023-05-08T01:32:16.124Z,1.38
2023-05-08T01:33:23.942Z,1.33
2023-05-08T01:34:32.473Z,1.30
2023-05-08T01:35:42.799Z,1.80
2023-05-08T01:36:51.939Z,1.45
2023-05-08T01:38:01.831Z,1.30
2023-05-08T01:39:15.139Z,1.52
2023-05-08T01:40:26.482Z,1.65
2023-05-08T01:41:31.961Z,1.40
2023-05-08T01:42:46.079Z,1.60
2023-05-08T01:43:54.048Z,1.42
2023-05-08T01:45:02.572Z,1.60
2023-05-08T01:46:10.164Z,1.75
2023-05-08T01:47:17.166Z,1.57
2023-05-08T01:48:25.797Z,1.50
2023-05-08T01:49:35.737Z,1.77
2023-05-08T01:50:47.035Z,1.67
2023-05-08T01:51:55.211Z,1.83
2023-05-08T01:53:03.565Z,1.60
2023-05-08T01:54:10.607Z,2.20
2023-05-08T01:55:18.272Z,1.55
2023-05-08T01:56:25.546Z,1.80
2023-05-08T01:57:30.238Z,1.65
2023-05-08T01:58:36.363Z,2.23
2023-05-08T01:59:41.740Z,1.88
2023-05-08T02:00:46.915Z,2.20
2023-05-08T02:01:51.697Z,2.00
2023-05-08T02:02:58.310Z,2.10
2023-05-08T02:04:01.298Z,1.70
2023-05-08T02:05:07.152Z,1.92
2023-05-08T02:06:10.449Z,1.80
2023-05-08T02:07:14.017Z,1.98
2023-05-08T02:08:18.317Z,2.15
2023-05-08T02:09:24.542Z,1.63
2023-05-08T02:10:29.320Z,1.70
2023-05-08T02:11:35.299Z,2.10
2023-05-08T02:12:39.202Z,1.83
2023-05-08T02:13:44.371Z,1.95
2023-05-08T02:14:49.368Z,1.90
2023-05-08T02:15:55.759Z,1.90
2023-05-08T02:17:00.098Z,1.73
2023-05-08T02:18:06.813Z,2.13
2023-05-08T02:19:12.277Z,2.13
2023-05-08T02:20:16.990Z,1.80
2023-05-08T02:21:20.120Z,2.08
2023-05-08T02:22:25.561Z,1.90
2023-05-08T02:23:28.405Z,1.98
2023-05-08T02:24:33.444Z,2.15
2023-05-08T02:25:36.417Z,1.90
2023-05-08T02:26:40.766Z,1.70
2023-05-08T02:27:46.891Z,1.90
2023-05-08T02:28:51.960Z,2.17
2023-05-08T02:29:55.181Z,2.35
2023-05-08T02:31:00.066Z,2.47
2023-05-08T02:32:03.859Z,1.88
2023-05-08T02:33:11.688Z,2.00
2023-05-08T02:34:14.264Z,1.92
2023-05-08T02:35:19.366Z,2.00
2023-05-08T02:36:23.454Z,2.28
2023-05-08T02:37:28.691Z,2.30
2023-05-08T02:38:33.195Z,2.10
2023-05-08T02:39:37.720Z,2.30
2023-05-08T02:40:44.552Z,2.42
2023-05-08T02:41:48.260Z,2.50
2023-05-08T02:42:50.856Z,2.15
2023-05-08T02:43:54.283Z,2.45
2023-05-08T02:44:56.495Z,2.47
2023-05-08T02:46:07.460Z,2.17
2023-05-08T02:47:18.246Z,2.38
2023-05-08T02:48:27.825Z,2.20
2023-05-08T02:49:37.613Z,2.20
2023-05-08T02:50:51.446Z,2.60
2023-05-08T02:51:57.836Z,2.30
2023-05-08T02:53:05.188Z,2.20
2023-05-08T02:54:11.262Z,2.67
2023-05-08T02:55:23.975Z,3.05
2023-05-08T02:56:34.384Z,2.30
2023-05-08T02:57:47.212Z,2.35
2023-05-08T02:58:58.056Z,2.40
2023-05-08T03:00:04.124Z,2.50
2023-05-08T03:01:15.195Z,2.60
2023-05-08T03:02:30.028Z,2.10
2023-05-08T03:03:40.521Z,2.50
2023-05-08T03:04:51.623Z,2.40
2023-05-08T03:05:59.187Z,2.38
2023-05-08T03:07:03.368Z,3.10
2023-05-08T03:08:11.572Z,2.30
2023-05-08T03:09:19.610Z,2.30
2023-05-08T03:10:30.039Z,2.60
2023-05-08T03:11:40.955Z,2.47
2023-05-08T03:12:47.537Z,2.30
2023-05-08T03:13:51.835Z,2.30
2023-05-08T03:15:04.090Z,2.30
2023-05-08T03:16:09.909Z,2.50
2023-05-08T03:17:16.829Z,2.30
2023-05-08T03:18:22.460Z,2.50
2023-05-08T03:19:31.569Z,2.50
2023-05-08T03:20:39.209Z,2.35
2023-05-08T03:21:45.535Z,2.20
2023-05-08T03:22:49.270Z,2.40
2023-05-08T03:23:55.362Z,2.40
2023-05-08T03:25:01.173Z,2.30
2023-05-08T03:26:06.080Z,2.60
2023-05-08T03:27:10.104Z,2.33
2023-05-08T03:28:14.915Z,2.20
2023-05-08T03:29:18.500Z,2.45
2023-05-08T03:30:22.441Z,2.30
2023-05-08T03:31:25.988Z,2.50
2023-05-08T03:32:31.211Z,2.20
2023-05-08T03:33:35.622Z,2.33
2023-05-08T03:34:41.808Z,2.47
2023-05-08T03:35:45.890Z,2.50
2023-05-08T03:36:49.438Z,2.40
2023-05-08T03:37:54.039Z,2.60
2023-05-08T03:38:57.742Z,2.38
2023-05-08T03:40:00.184Z,2.40
2023-05-08T03:41:04.137Z,2.20
2023-05-08T03:42:06.479Z,2.67
2023-05-08T03:43:10.231Z,2.50
2023-05-08T03:44:13.773Z,2.50
2023-05-08T03:45:18.118Z,2.70
2023-05-08T03:46:21.424Z,2.92
2023-05-08T03:47:26.378Z,2.78
2023-05-08T03:48:31.328Z,2.37
2023-05-08T03:49:36.702Z,2.60
2023-05-08T03:50:40.428Z,2.83
2023-05-08T03:51:44.611Z,2.67
2023-05-08T03:52:47.032Z,2.70
2023-05-08T03:53:50.784Z,3.13
2023-05-08T03:54:53.045Z,2.75
2023-05-08T03:55:57.989Z,2.35
2023-05-08T03:57:00.274Z,2.50
2023-05-08T03:58:13.083Z,2.83
2023-05-08T03:59:22.244Z,2.97
2023-05-08T04:00:33.357Z,2.58
2023-05-08T04:01:40.896Z,2.30
2023-05-08T04:02:51.759Z,2.78
2023-05-08T04:04:04.931Z,2.50
2023-05-08T04:05:19.082Z,2.50
2023-05-08T04:06:35.685Z,2.33
2023-05-08T04:07:54.787Z,2.67
2023-05-08T04:09:04.768Z,2.95
2023-05-08T04:10:11.586Z,2.50
2023-05-08T04:11:23.018Z,2.80
2023-05-08T04:12:37.789Z,3.20
2023-05-08T04:13:46.276Z,2.88
2023-05-08T04:14:56.816Z,2.65
2023-05-08T04:16:06.946Z,2.58
2023-05-08T04:17:13.428Z,2.78
2023-05-08T04:18:19.091Z,2.72
2023-05-08T04:19:28.892Z,3.20
2023-05-08T04:20:33.741Z,2.72
2023-05-08T04:21:40.516Z,2.88
2023-05-08T04:22:44.517Z,2.50
2023-05-08T04:23:51.254Z,3.00
2023-05-08T04:24:58.282Z,2.80
2023-05-08T04:26:02.971Z,2.65
2023-05-08T04:27:06.979Z,2.90
2023-05-08T04:28:11.662Z,2.92
2023-05-08T04:29:14.803Z,2.85
2023-05-08T04:30:18.509Z,3.05
2023-05-08T04:31:21.202Z,2.50
2023-05-08T04:32:25.724Z,2.60
2023-05-08T04:33:29.727Z,2.20
2023-05-08T04:34:33.141Z,2.88
2023-05-08T04:35:35.550Z,3.08
2023-05-08T04:36:40.806Z,3.05
2023-05-08T04:37:44.006Z,2.80
2023-05-08T04:38:47.443Z,2.75
2023-05-08T04:39:51.222Z,2.80
2023-05-08T04:40:54.820Z,2.92
2023-05-08T04:42:02.741Z,2.65
2023-05-08T04:43:06.205Z,2.60
2023-05-08T04:44:08.520Z,2.77
2023-05-08T04:45:12.557Z,2.70
2023-05-08T04:46:15.114Z,2.78
2023-05-08T04:47:18.774Z,3.22
2023-05-08T04:48:21.034Z,2.97
2023-05-08T04:49:24.394Z,2.70
2023-05-08T04:50:26.724Z,2.80
2023-05-08T04:51:31.907Z,2.67
2023-05-08T04:52:35.842Z,2.83
2023-05-08T04:53:39.098Z,2.53
2023-05-08T04:54:43.054Z,3.00
2023-05-08T04:55:45.990Z,2.88
2023-05-08T04:56:49.712Z,3.00
2023-05-08T04:57:51.997Z,2.78
2023-05-08T04:58:55.334Z,2.95
2023-05-08T04:59:57.788Z,2.60
2023-05-08T05:01:03.607Z,3.00
2023-05-08T05:02:08.328Z,2.63
2023-05-08T05:03:11.987Z,2.90
2023-05-08T05:04:14.493Z,2.83
2023-05-08T05:05:18.255Z,2.50
2023-05-08T05:06:20.703Z,3.17
2023-05-08T05:07:24.104Z,2.65
2023-05-08T05:08:27.908Z,2.88
2023-05-08T05:09:31.604Z,2.83
2023-05-08T05:10:34.041Z,2.70
2023-05-08T05:11:37.482Z,3.30
2023-05-08T05:12:39.757Z,3.20
2023-05-08T05:13:43.188Z,2.67
2023-05-08T05:14:45.376Z,3.00
2023-05-08T05:15:51.467Z,2.70
2023-05-08T05:16:53.824Z,2.95
2023-05-08T05:17:57.240Z,2.72
2023-05-08T05:18:59.584Z,3.13
2023-05-08T05:20:03.107Z,3.25
2023-05-08T05:21:08.046Z,2.88
2023-05-08T05:22:12.360Z,3.15
2023-05-08T05:23:14.770Z,3.60
2023-05-08T05:24:19.475Z,3.08
2023-05-08T05:25:22.170Z,3.25
2023-05-08T05:26:25.478Z,3.23
2023-05-08T05:27:27.741Z,3.33
2023-05-08T05:28:31.189Z,3.83
2023-05-08T05:29:33.521Z,3.55
2023-05-08T05:30:37.271Z,3.60
2023-05-08T05:31:39.975Z,3.17
2023-05-08T05:32:43.727Z,3.88
2023-05-08T05:33:46.691Z,3.30
2023-05-08T05:34:49.982Z,3.80
2023-05-08T05:35:53.292Z,4.00
2023-05-08T05:36:55.636Z,3.20
2023-05-08T05:37:59.309Z,3.28
2023-05-08T05:39:01.579Z,3.33
2023-05-08T05:40:07.896Z,3.20
2023-05-08T05:41:10.231Z,3.85
2023-05-08T05:42:14.221Z,3.42
2023-05-08T05:43:16.557Z,4.10
2023-05-08T05:44:20.105Z,3.60
2023-05-08T05:45:22.952Z,3.58
2023-05-08T05:46:32.371Z,4.05
2023-05-08T05:47:35.303Z,3.53
2023-05-08T05:48:39.147Z,3.25
2023-05-08T05:49:46.909Z,4.03
2023-05-08T05:50:50.329Z,3.45
2023-05-08T05:51:52.827Z,3.65
2023-05-08T05:52:56.416Z,3.90
2023-05-08T05:53:58.729Z,3.65
2023-05-08T05:55:02.140Z,3.72
2023-05-08T05:56:07.259Z,4.15
2023-05-08T05:57:10.909Z,3.95
2023-05-08T05:58:13.120Z,3.60
2023-05-08T05:59:16.528Z,3.85
2023-05-08T06:00:19.625Z,4.07
2023-05-08T06:01:24.713Z,3.85
2023-05-08T06:02:27.447Z,3.15
2023-05-08T06:03:31.113Z,3.42
2023-05-08T06:04:34.192Z,3.55
2023-05-08T06:05:37.765Z,3.00
2023-05-08T06:06:40.087Z,3.03
2023-05-08T06:07:43.846Z,3.45
2023-05-08T06:08:46.265Z,3.53
2023-05-08T06:09:51.254Z,3.50
2023-05-08T06:10:53.597Z,2.97
2023-05-08T06:11:58.447Z,3.70
2023-05-08T06:13:01.271Z,3.60
2023-05-08T06:14:05.072Z,3.63
2023-05-08T06:15:08.540Z,3.05
2023-05-08T06:16:12.092Z,3.00
2023-05-08T06:17:14.664Z,3.30
2023-05-08T06:18:18.006Z,3.63
2023-05-08T06:19:21.075Z,3.07
2023-05-08T06:20:26.288Z,3.40
2023-05-08T06:21:29.223Z,3.63
2023-05-08T06:22:32.580Z,3.60
2023-05-08T06:23:35.942Z,3.10
2023-05-08T06:24:38.544Z,3.30
2023-05-08T06:25:42.001Z,3.10
2023-05-08T06:26:47.860Z,3.22
2023-05-08T06:27:52.561Z,2.75
2023-05-08T06:28:55.159Z,2.42
2023-05-08T06:29:58.559Z,2.93
2023-05-08T06:31:02.132Z,2.80
2023-05-08T06:32:04.776Z,2.83
2023-05-08T06:33:08.122Z,2.80
2023-05-08T06:34:10.810Z,2.45
2023-05-08T06:35:18.481Z,2.30
2023-05-08T06:36:21.878Z,2.80
2023-05-08T06:37:24.368Z,2.50
2023-05-08T06:38:27.730Z,2.42
2023-05-08T06:39:29.981Z,3.15
2023-05-08T06:40:33.449Z,2.60
2023-05-08T06:41:35.741Z,2.65
2023-05-08T06:42:39.106Z,3.00
2023-05-08T06:43:42.821Z,2.92
2023-05-08T06:44:46.141Z,3.03
2023-05-08T06:45:49.899Z,3.17
2023-05-08T06:46:53.283Z,3.00
2023-05-08T06:47:55.798Z,3.30
2023-05-08T06:48:59.187Z,2.92
2023-05-08T06:50:01.861Z,3.38
2023-05-08T06:51:05.636Z,3.00
2023-05-08T06:52:07.872Z,3.22
2023-05-08T06:53:11.209Z,2.78
2023-05-08T06:54:15.209Z,2.90
2023-05-08T06:55:18.264Z,2.70
2023-05-08T06:56:22.874Z,2.80
2023-05-08T06:57:29.382Z,2.83
2023-05-08T06:58:33.284Z,3.20
2023-05-08T06:59:38.504Z,2.30
2023-05-08T07:00:40.952Z,2.80
2023-05-08T07:01:44.318Z,2.73
2023-05-08T07:02:46.635Z,3.13
2023-05-08T07:03:49.970Z,2.55
2023-05-08T07:04:53.431Z,3.03
2023-05-08T07:05:55.753Z,2.55
2023-05-08T07:06:59.140Z,2.33
2023-05-08T07:08:02.456Z,2.13
2023-05-08T07:09:04.892Z,2.20
2023-05-08T07:10:09.272Z,2.78
2023-05-08T07:11:11.633Z,2.50
2023-05-08T07:12:16.817Z,2.30
2023-05-08T07:13:22.093Z,2.40
2023-05-08T07:14:25.488Z,2.30
2023-05-08T07:15:32.456Z,2.50
2023-05-08T07:16:35.183Z,2.50
2023-05-08T07:17:38.579Z,2.47
2023-05-08T07:18:42.081Z,2.20
2023-05-08T07:19:44.626Z,2.17
2023-05-08T07:20:47.927Z,2.30
2023-05-08T07:21:50.363Z,2.20
2023-05-08T07:22:54.176Z,2.40
2023-05-08T07:23:57.851Z,2.40
2023-05-08T07:25:01.233Z,2.60
2023-05-08T07:26:03.871Z,2.30
2023-05-08T07:27:07.249Z,2.25
2023-05-08T07:28:09.758Z,2.30
2023-05-08T07:29:13.290Z,2.45
2023-05-08T07:30:16.187Z,1.90
2023-05-08T07:31:21.299Z,2.58
2023-05-08T07:32:24.935Z,2.20
2023-05-08T07:33:28.355Z,2.17
2023-05-08T07:34:31.689Z,2.00
2023-05-08T07:35:35.116Z,1.95
2023-05-08T07:36:38.092Z,2.38
2023-05-08T07:37:41.693Z,2.50
2023-05-08T07:38:45.088Z,2.15
2023-05-08T07:39:47.793Z,2.10
2023-05-08T07:40:52.039Z,2.10
2023-05-08T07:41:55.593Z,2.13
2023-05-08T07:42:58.244Z,2.40
2023-05-08T07:44:01.578Z,2.23
2023-05-08T07:45:05.273Z,2.30
2023-05-08T07:46:08.695Z,2.30
2023-05-08T07:47:12.830Z,2.13
2023-05-08T07:48:16.237Z,2.45
2023-05-08T07:49:20.569Z,2.05
2023-05-08T07:50:23.447Z,2.10
2023-05-08T07:51:27.208Z,2.20
2023-05-08T07:52:29.476Z,2.45
2023-05-08T07:53:33.178Z,2.25
2023-05-08T07:54:36.548Z,2.53
2023-05-08T07:55:39.050Z,2.10
2023-05-08T07:56:42.832Z,2.50
2023-05-08T07:57:45.227Z,2.25
2023-05-08T07:58:48.634Z,2.00
2023-05-08T07:59:51.917Z,2.15
2023-05-08T08:00:55.091Z,2.10
2023-05-08T08:01:57.628Z,2.20
2023-05-08T08:03:02.490Z,2.30
2023-05-08T08:04:05.557Z,1.90
2023-05-08T08:05:09.804Z,2.33
2023-05-08T08:06:13.245Z,2.20
2023-05-08T08:07:16.810Z,2.10
2023-05-08T08:08:20.545Z,2.25
2023-05-08T08:09:22.940Z,2.10
2023-05-08T08:10:26.148Z,2.22
2023-05-08T08:11:28.360Z,2.70
2023-05-08T08:12:32.064Z,2.28
2023-05-08T08:13:34.428Z,2.30
2023-05-08T08:14:37.774Z,2.13
2023-05-08T08:15:40.249Z,2.40
2023-05-08T08:16:44.411Z,2.20
2023-05-08T08:17:49.127Z,2.30
2023-05-08T08:18:53.867Z,2.33
2023-05-08T08:19:56.075Z,2.45
2023-05-08T08:20:59.544Z,1.83
2023-05-08T08:22:01.761Z,2.20
2023-05-08T08:23:04.920Z,2.53
2023-05-08T08:24:07.776Z,2.35
2023-05-08T08:25:11.545Z,2.20
2023-05-08T08:26:14.018Z,2.30
2023-05-08T08:27:18.017Z,2.30
2023-05-08T08:28:21.280Z,2.45
2023-05-08T08:29:23.706Z,2.42
2023-05-08T08:30:27.010Z,2.45
2023-05-08T08:31:30.367Z,2.22
2023-05-08T08:32:32.928Z,2.22
2023-05-08T08:33:36.158Z,2.67
2023-05-08T08:34:39.722Z,2.42
2023-05-08T08:35:43.322Z,2.40
2023-05-08T08:36:46.724Z,2.23
2023-05-08T08:37:50.416Z,2.13
2023-05-08T08:38:53.970Z,2.17
2023-05-08T08:39:56.272Z,2.20
2023-05-08T08:41:06.910Z,2.55
2023-05-08T08:42:09.863Z,2.30
2023-05-08T08:43:13.362Z,2.10
2023-05-08T08:44:16.960Z,2.00
2023-05-08T08:45:19.673Z,2.30
2023-05-08T08:46:27.208Z,1.83
2023-05-08T08:47:31.844Z,2.13
2023-05-08T08:48:34.602Z,1.60
2023-05-08T08:49:44.864Z,1.77
2023-05-08T08:50:51.386Z,1.58
2023-05-08T08:51:57.786Z,1.90
2023-05-08T08:53:08.883Z,1.65
2023-05-08T08:54:14.511Z,1.80
2023-05-08T08:55:18.753Z,1.73
2023-05-08T08:56:24.918Z,1.90
2023-05-08T08:57:30.209Z,1.85
2023-05-08T08:58:39.936Z,1.93
2023-05-08T08:59:45.515Z,1.80
2023-05-08T09:00:50.876Z,1.80
2023-05-08T09:01:57.224Z,1.73
2023-05-08T09:03:01.915Z,1.98
2023-05-08T09:04:05.682Z,1.73
2023-05-08T09:05:13.449Z,1.98
2023-05-08T09:06:17.239Z,2.00
2023-05-08T09:07:19.754Z,1.80
2023-05-08T09:08:23.194Z,1.77
2023-05-08T09:09:25.987Z,1.70
2023-05-08T09:10:29.449Z,1.75
2023-05-08T09:11:33.079Z,1.92
2023-05-08T09:12:36.907Z,2.00
2023-05-08T09:13:40.195Z,1.80
2023-05-08T09:14:42.906Z,2.03
2023-05-08T09:15:46.794Z,2.00
2023-05-08T09:16:50.233Z,1.80
2023-05-08T09:17:52.539Z,2.05
2023-05-08T09:18:55.928Z,1.90
2023-05-08T09:19:58.888Z,2.10
2023-05-08T09:21:04.367Z,1.80
2023-05-08T09:22:09.310Z,1.88
2023-05-08T09:23:14.858Z,1.92
2023-05-08T09:24:17.208Z,1.85
2023-05-08T09:25:20.936Z,1.80
2023-05-08T09:26:32.726Z,1.83
2023-05-08T09:27:36.478Z,2.00
2023-05-08T09:28:39.856Z,2.10
2023-05-08T09:29:59.413Z,2.00
2023-05-08T09:31:02.947Z,2.13
2023-05-08T09:32:05.830Z,2.30
2023-05-08T09:33:09.198Z,2.15
2023-05-08T09:34:23.883Z,2.17
2023-05-08T09:35:37.766Z,2.10
2023-05-08T09:36:42.483Z,2.60
2023-05-08T09:37:47.618Z,2.17
2023-05-08T09:38:51.216Z,1.92
2023-05-08T09:39:54.150Z,2.05
2023-05-08T09:41:08.307Z,2.00
2023-05-08T09:42:11.644Z,2.00
2023-05-08T09:43:14.108Z,2.00
2023-05-08T09:44:17.790Z,2.13
2023-05-08T09:45:31.946Z,2.10
2023-05-08T09:46:34.993Z,2.08
2023-05-08T09:47:39.694Z,2.00
2023-05-08T09:48:42.839Z,2.20
2023-05-08T09:49:59.685Z,2.50
2023-05-08T09:51:07.737Z,2.78
2023-05-08T09:52:17.213Z,2.50
2023-05-08T09:53:21.148Z,3.13
2023-05-08T09:54:25.242Z,2.67
2023-05-08T09:55:28.617Z,2.78
2023-05-08T09:56:32.690Z,2.70
2023-05-08T09:57:38.574Z,2.92
2023-05-08T09:58:41.976Z,2.85
2023-05-08T09:59:45.534Z,3.10
2023-05-08T10:00:47.893Z,3.05
2023-05-08T10:01:51.326Z,2.92
2023-05-08T10:02:58.643Z,2.55
2023-05-08T10:04:02.823Z,2.70
2023-05-08T10:05:23.425Z,2.85
2023-05-08T10:06:28.394Z,2.38
2023-05-08T10:07:34.682Z,2.30
2023-05-08T10:08:36.943Z,2.90
2023-05-08T10:09:50.226Z,2.50
2023-05-08T10:10:54.570Z,2.92
2023-05-08T10:11:57.006Z,2.50
2023-05-08T10:13:00.591Z,3.03
2023-05-08T10:14:02.902Z,2.90
2023-05-08T10:15:07.189Z,3.00
2023-05-08T10:16:15.012Z,3.38
2023-05-08T10:17:27.083Z,2.97
2023-05-08T10:18:36.753Z,3.67
2023-05-08T10:19:46.270Z,3.08
2023-05-08T10:20:51.483Z,3.10
2023-05-08T10:21:56.798Z,3.20
2023-05-08T10:23:02.194Z,3.28
2023-05-08T10:24:07.589Z,3.45
2023-05-08T10:25:17.437Z,3.40
2023-05-08T10:26:25.842Z,3.27
2023-05-08T10:27:36.042Z,3.10
2023-05-08T10:28:43.908Z,2.90
2023-05-08T10:29:53.288Z,2.92
2023-05-08T10:30:58.389Z,2.97
2023-05-08T10:32:04.053Z,3.30
2023-05-08T10:33:11.724Z,3.40
2023-05-08T10:34:20.171Z,2.80
2023-05-08T10:35:24.048Z,3.15
2023-05-08T10:36:28.059Z,3.20
2023-05-08T10:37:35.988Z,3.63
2023-05-08T10:38:43.088Z,2.88
2023-05-08T10:39:47.829Z,2.90
2023-05-08T10:40:53.536Z,3.15
2023-05-08T10:41:57.381Z,3.03
2023-05-08T10:43:00.726Z,3.40
2023-05-08T10:44:04.854Z,3.30
2023-05-08T10:45:08.723Z,2.80
2023-05-08T10:46:19.237Z,3.22
2023-05-08T10:47:29.555Z,3.17
2023-05-08T10:48:40.517Z,2.90
2023-05-08T10:49:49.758Z,3.10
2023-05-08T10:51:04.317Z,3.40
2023-05-08T10:52:22.623Z,3.35
2023-05-08T10:53:34.645Z,3.17
2023-05-08T10:54:58.830Z,2.50
2023-05-08T10:56:03.105Z,3.50
2023-05-08T10:57:10.658Z,3.10
2023-05-08T10:58:16.283Z,2.83
2023-05-08T10:59:19.834Z,3.00
2023-05-08T11:00:24.392Z,2.93
2023-05-08T11:01:27.340Z,3.20
2023-05-08T11:02:36.968Z,2.60
2023-05-08T11:03:42.806Z,2.90
2023-05-08T11:04:48.697Z,3.15
2023-05-08T11:05:52.897Z,3.03
2023-05-08T11:06:59.127Z,2.60
2023-05-08T11:08:01.556Z,3.15
2023-05-08T11:09:05.148Z,3.15
2023-05-08T11:10:15.719Z,3.00
2023-05-08T11:11:25.383Z,2.87
2023-05-08T11:12:31.477Z,2.60
2023-05-08T11:13:35.559Z,2.80
2023-05-08T11:14:43.507Z,3.10
2023-05-08T11:15:51.334Z,3.28
2023-05-08T11:17:08.500Z,3.17
2023-05-08T11:18:12.432Z,3.00
2023-05-08T11:19:18.414Z,3.28
2023-05-08T11:20:24.956Z,3.28
2023-05-08T11:21:27.269Z,2.90
2023-05-08T11:22:32.782Z,3.30
2023-05-08T11:23:36.356Z,3.10
2023-05-08T11:24:40.890Z,3.03
2023-05-08T11:25:46.484Z,3.20
2023-05-08T11:26:49.750Z,3.08
2023-05-08T11:28:10.875Z,3.40
2023-05-08T11:29:18.037Z,2.83
2023-05-08T11:30:23.439Z,2.88
2023-05-08T11:31:55.849Z,2.80
2023-05-08T11:32:59.896Z,3.10
2023-05-08T11:34:05.769Z,3.00
2023-05-08T11:35:11.357Z,2.92
2023-05-08T11:36:15.910Z,2.60
2023-05-08T11:37:20.564Z,2.90
2023-05-08T11:38:27.250Z,2.92
2023-05-08T11:39:30.425Z,3.10
2023-05-08T11:40:55.362Z,2.90
2023-05-08T11:42:35.027Z,2.92
2023-05-08T11:44:15.310Z,3.00
2023-05-08T11:45:21.539Z,2.80
2023-05-08T11:46:23.800Z,2.97
2023-05-08T11:47:38.031Z,2.70
2023-05-08T11:48:40.625Z,3.08
2023-05-08T11:49:44.320Z,2.92
2023-05-08T11:50:46.958Z,3.30
2023-05-08T11:51:55.250Z,3.13
2023-05-08T11:52:57.447Z,3.10
2023-05-08T11:54:01.237Z,2.80
2023-05-08T11:55:09.754Z,2.90
2023-05-08T11:56:14.717Z,3.03
2023-05-08T11:57:18.713Z,3.07
2023-05-08T11:58:22.211Z,3.40
2023-05-08T11:59:25.757Z,3.38
2023-05-08T12:00:29.042Z,3.50
2023-05-08T12:01:33.252Z,2.88
2023-05-08T12:02:38.462Z,3.40
2023-05-08T12:03:41.497Z,2.90
2023-05-08T12:04:46.791Z,2.95
2023-05-08T12:05:50.538Z,3.97
2023-05-08T12:06:59.030Z,3.20
2023-05-08T12:08:01.367Z,3.00
2023-05-08T12:09:05.826Z,2.90
2023-05-08T12:10:10.747Z,2.83
2023-05-08T12:11:24.060Z,3.20
2023-05-08T12:12:36.613Z,3.10
2023-05-08T12:13:39.838Z,3.20
2023-05-08T12:14:43.208Z,2.90
2023-05-08T12:15:47.023Z,3.15
2023-05-08T12:16:50.349Z,3.25
2023-05-08T12:18:01.997Z,2.92
2023-05-08T12:19:10.463Z,2.80
2023-05-08T12:20:17.807Z,2.80
2023-05-08T12:21:22.817Z,3.15
2023-05-08T12:22:26.699Z,2.78
2023-05-08T12:23:30.192Z,2.85
2023-05-08T12:24:34.250Z,3.42
2023-05-08T12:25:37.776Z,3.03
2023-05-08T12:26:42.498Z,2.80
2023-05-08T12:27:45.963Z,3.15
2023-05-08T12:28:56.037Z,2.85
2023-05-08T12:29:58.520Z,2.90
2023-05-08T12:31:02.030Z,2.97
2023-05-08T12:32:05.556Z,2.90
2023-05-08T12:33:09.565Z,2.60
2023-05-08T12:34:13.832Z,3.05
2023-05-08T12:35:16.718Z,3.20
2023-05-08T12:36:20.324Z,3.30
2023-05-08T12:37:27.639Z,3.17
2023-05-08T12:38:31.120Z,3.63
2023-05-08T12:39:38.629Z,2.80
2023-05-08T12:40:42.985Z,3.10
2023-05-08T12:41:51.846Z,3.17
2023-05-08T12:42:54.226Z,3.15
2023-05-08T12:43:57.579Z,3.08
2023-05-08T12:45:00.237Z,3.10
2023-05-08T12:46:07.764Z,3.00
2023-05-08T12:47:10.614Z,2.78
2023-05-08T12:48:15.683Z,2.83
2023-05-08T12:49:27.008Z,3.08
2023-05-08T12:50:34.883Z,2.78
2023-05-08T12:51:38.200Z,3.17
2023-05-08T12:52:41.447Z,3.58
2023-05-08T12:53:48.113Z,2.60
2023-05-08T12:54:50.595Z,3.08
2023-05-08T12:55:55.524Z,3.10
2023-05-08T12:56:59.285Z,2.85
2023-05-08T12:58:05.324Z,2.92
2023-05-08T12:59:08.985Z,3.28
2023-05-08T13:00:15.598Z,3.35
2023-05-08T13:01:19.127Z,3.42
2023-05-08T13:02:24.220Z,2.73
2023-05-08T13:03:28.691Z,3.00
2023-05-08T13:04:40.384Z,3.03
2023-05-08T13:05:43.933Z,2.70
2023-05-08T13:06:56.528Z,3.28
2023-05-08T13:08:06.410Z,2.97
2023-05-08T13:09:45.477Z,3.30
2023-05-08T13:10:59.346Z,2.65
2023-05-08T13:12:07.106Z,3.33
2023-05-08T13:13:10.847Z,3.05
2023-05-08T13:14:14.388Z,2.83
2023-05-08T13:15:16.854Z,3.00
2023-05-08T13:16:20.634Z,3.10
2023-05-08T13:17:23.677Z,2.60
2023-05-08T13:18:28.693Z,2.90
2023-05-08T13:19:31.106Z,2.30
2023-05-08T13:20:35.038Z,2.50
2023-05-08T13:21:38.992Z,2.38
2023-05-08T13:22:41.259Z,2.25
2023-05-08T13:23:44.551Z,2.50
2023-05-08T13:24:46.668Z,2.50
2023-05-08T13:25:50.577Z,2.35
2023-05-08T13:26:52.722Z,2.13
2023-05-08T13:27:57.566Z,2.30
2023-05-08T13:29:00.847Z,2.20
2023-05-08T13:30:03.087Z,2.10
2023-05-08T13:31:06.564Z,2.50
2023-05-08T13:32:09.881Z,1.88
2023-05-08T13:33:13.358Z,2.25
2023-05-08T13:34:15.677Z,2.30
2023-05-08T13:35:19.700Z,2.20
2023-05-08T13:36:23.192Z,1.80
2023-05-08T13:37:25.936Z,2.40
2023-05-08T13:38:29.346Z,1.90
2023-05-08T13:39:32.964Z,1.88
2023-05-08T13:40:36.295Z,1.60
2023-05-08T13:41:38.599Z,2.00
2023-05-08T13:42:42.877Z,2.30
2023-05-08T13:43:47.407Z,2.10
2023-05-08T13:44:50.852Z,2.30
2023-05-08T13:45:55.203Z,2.00
2023-05-08T13:46:57.439Z,2.08
2023-05-08T13:48:00.796Z,2.10
2023-05-08T13:49:03.183Z,1.90
2023-05-08T13:50:07.736Z,1.67
2023-05-08T13:51:11.101Z,2.33
2023-05-08T13:52:14.519Z,2.00
2023-05-08T13:53:18.113Z,1.85
2023-05-08T13:54:20.588Z,2.28
2023-05-08T13:55:23.951Z,1.90
2023-05-08T13:56:26.334Z,2.10
2023-05-08T13:57:29.539Z,2.20
2023-05-08T13:58:32.746Z,2.15
2023-05-08T13:59:36.356Z,2.58
2023-05-08T14:00:39.565Z,2.20
2023-05-08T14:01:42.002Z,2.05
2023-05-08T14:02:45.633Z,2.47
2023-05-08T14:03:48.116Z,2.40
2023-05-08T14:04:51.334Z,1.92
2023-05-08T14:05:53.547Z,2.75
2023-05-08T14:06:56.830Z,2.60
2023-05-08T14:07:59.003Z,2.13
2023-05-08T14:09:02.344Z,2.92
2023-05-08T14:10:06.428Z,2.92
2023-05-08T14:11:08.671Z,2.70
2023-05-08T14:12:11.905Z,2.28
2023-05-08T14:13:15.213Z,2.30
2023-05-08T14:14:17.661Z,2.55
2023-05-08T14:15:23.483Z,2.90
2023-05-08T14:16:32.366Z,2.97
2023-05-08T14:17:35.729Z,2.60
2023-05-08T14:18:38.070Z,3.05
2023-05-08T14:19:41.422Z,2.65
2023-05-08T14:20:48.950Z,2.95
2023-05-08T14:21:53.901Z,3.13
2023-05-08T14:22:59.919Z,3.25
2023-05-08T14:24:02.801Z,2.50
2023-05-08T14:25:07.080Z,2.70
2023-05-08T14:26:09.318Z,2.97
2023-05-08T14:27:12.645Z,3.13
2023-05-08T14:28:16.088Z,3.00
2023-05-08T14:29:19.108Z,3.30
2023-05-08T14:30:24.011Z,2.88
2023-05-08T14:31:26.505Z,2.65